createdAt,value
2023-04-09T00:01:13.092Z,100.00
2023-04-09T00:03:41.164Z,100.00
2023-04-09T00:06:12.208Z,100.00
2023-04-09T00:08:39.773Z,100.00
2023-04-09T00:11:07.353Z,100.00
2023-04-09T00:13:39.319Z,100.00
2023-04-09T00:16:07.676Z,100.00
2023-04-09T00:18:35.475Z,100.00
2023-04-09T00:21:03.115Z,100.00
2023-04-09T00:23:32.135Z,100.00
2023-04-09T00:25:59.718Z,100.00
2023-04-09T00:28:27.340Z,100.00
2023-04-09T00:30:54.924Z,100.00
2023-04-09T00:33:22.460Z,100.00
2023-04-09T00:35:50.084Z,100.00
2023-04-09T00:38:17.775Z,100.00
2023-04-09T00:40:50.313Z,100.00
2023-04-09T00:43:18.253Z,100.00
2023-04-09T00:45:46.248Z,100.00
2023-04-09T00:48:14.750Z,100.00
2023-04-09T00:50:42.924Z,100.00
2023-04-09T00:53:13.097Z,100.00
2023-04-09T00:55:41.026Z,100.00
2023-04-09T00:58:11.019Z,100.00
2023-04-09T01:00:38.980Z,100.00
2023-04-09T01:03:07.902Z,100.00
2023-04-09T01:05:41.913Z,100.00
2023-04-09T01:08:17.467Z,100.00
2023-04-09T01:10:52.371Z,100.00
2023-04-09T01:13:29.378Z,100.00
2023-04-09T01:16:00.307Z,100.00
2023-04-09T01:18:33.729Z,100.00
2023-04-09T01:21:06.893Z,100.00
2023-04-09T01:23:46.266Z,100.00
2023-04-09T01:26:22.244Z,100.00
2023-04-09T01:28:55.495Z,100.00
2023-04-09T01:31:29.036Z,100.00
2023-04-09T01:33:56.720Z,100.00
2023-04-09T01:36:26.419Z,100.00
2023-04-09T01:38:56.858Z,100.00
2023-04-09T01:41:25.969Z,100.00
2023-04-09T01:43:55.430Z,100.00
2023-04-09T01:46:24.419Z,100.00
2023-04-09T01:48:53.073Z,100.00
2023-04-09T01:51:20.870Z,100.00
2023-04-09T01:53:49.153Z,100.00
2023-04-09T01:56:16.667Z,100.00
2023-04-09T01:58:44.119Z,100.00
2023-04-09T02:01:17.609Z,100.00
2023-04-09T02:03:48.283Z,100.00
2023-04-09T02:06:20.311Z,100.00
2023-04-09T02:08:50.018Z,100.00
2023-04-09T02:11:18.149Z,100.00
2023-04-09T02:13:47.061Z,100.00
2023-04-09T02:16:17.056Z,100.00
2023-04-09T02:18:44.882Z,100.00
2023-04-09T02:21:13.669Z,100.00
2023-04-09T02:23:41.208Z,100.00
2023-04-09T02:26:08.808Z,100.00
2023-04-09T02:28:36.335Z,100.00
2023-04-09T02:31:03.968Z,100.00
2023-04-09T02:33:32.895Z,100.00
2023-04-09T02:36:00.555Z,100.00
2023-04-09T02:38:28.194Z,100.00
2023-04-09T02:40:55.759Z,100.00
2023-04-09T02:43:23.358Z,100.00
2023-04-09T02:45:51.279Z,100.00
2023-04-09T02:48:18.804Z,100.00
2023-04-09T02:50:47.643Z,100.00
2023-04-09T02:53:15.280Z,100.00
2023-04-09T02:55:42.818Z,100.00
2023-04-09T02:58:10.361Z,100.00
2023-04-09T03:00:37.919Z,100.00
2023-04-09T03:03:05.688Z,100.00
2023-04-09T03:05:33.299Z,100.00
2023-04-09T03:08:02.721Z,100.00
2023-04-09T03:10:30.190Z,100.00
2023-04-09T03:12:57.726Z,100.00
2023-04-09T03:15:25.439Z,100.00
2023-04-09T03:17:53.004Z,100.00
2023-04-09T03:20:20.611Z,100.00
2023-04-09T03:22:48.127Z,100.00
2023-04-09T03:25:19.359Z,100.00
2023-04-09T03:27:46.964Z,100.00
2023-04-09T03:30:14.597Z,100.00
2023-04-09T03:32:42.171Z,100.00
2023-04-09T03:35:10.208Z,100.00
2023-04-09T03:37:37.671Z,100.00
2023-04-09T03:40:06.101Z,100.00
2023-04-09T03:42:37.266Z,100.00
2023-04-09T03:45:05.810Z,100.00
2023-04-09T03:47:34.165Z,100.00
2023-04-09T03:50:01.885Z,100.00
2023-04-09T03:52:29.346Z,100.00
2023-04-09T03:54:56.864Z,100.00
2023-04-09T03:57:24.445Z,100.00
2023-04-09T03:59:53.361Z,100.00
2023-04-09T04:02:21.161Z,100.00
2023-04-09T04:04:48.787Z,100.00
2023-04-09T04:07:16.292Z,100.00
2023-04-09T04:09:43.762Z,100.00
2023-04-09T04:12:11.229Z,100.00
2023-04-09T04:14:38.707Z,100.00
2023-04-09T04:17:07.512Z,100.00
2023-04-09T04:19:35.189Z,100.00
2023-04-09T04:22:02.733Z,100.00
2023-04-09T04:24:30.193Z,100.00
2023-04-09T04:26:57.649Z,100.00
2023-04-09T04:29:25.248Z,100.00
2023-04-09T04:31:52.744Z,100.00
2023-04-09T04:34:21.710Z,100.00
2023-04-09T04:36:49.218Z,100.00
2023-04-09T04:39:16.765Z,100.00
2023-04-09T04:41:44.224Z,100.00
2023-04-09T04:44:11.753Z,100.00
2023-04-09T04:46:39.235Z,100.00
2023-04-09T04:49:06.719Z,100.00
2023-04-09T04:51:35.603Z,100.00
2023-04-09T04:54:03.066Z,100.00
2023-04-09T04:56:30.676Z,100.00
2023-04-09T04:58:58.218Z,100.00
2023-04-09T05:01:25.853Z,100.00
2023-04-09T05:03:53.580Z,100.00
2023-04-09T05:06:21.195Z,100.00
2023-04-09T05:08:50.319Z,100.00
2023-04-09T05:11:18.018Z,100.00
2023-04-09T05:13:45.501Z,100.00
2023-04-09T05:16:17.497Z,100.00
2023-04-09T05:18:45.134Z,100.00
2023-04-09T05:21:12.621Z,100.00
2023-04-09T05:23:40.116Z,100.00
2023-04-09T05:26:09.012Z,100.00
2023-04-09T05:28:36.520Z,100.00
2023-04-09T05:31:04.052Z,100.00
2023-04-09T05:33:37.720Z,100.00
2023-04-09T05:36:06.008Z,100.00
2023-04-09T05:38:34.165Z,100.00
2023-04-09T05:41:01.834Z,100.00
2023-04-09T05:43:30.680Z,100.00
2023-04-09T05:45:58.170Z,100.00
2023-04-09T05:48:25.637Z,100.00
2023-04-09T05:50:55.541Z,100.00
2023-04-09T05:53:23.573Z,100.00
2023-04-09T05:55:51.094Z,100.00
2023-04-09T05:58:19.733Z,100.00
2023-04-09T06:00:48.658Z,100.00
2023-04-09T06:03:16.173Z,100.00
2023-04-09T06:05:45.625Z,100.00
2023-04-09T06:08:13.989Z,100.00
2023-04-09T06:10:41.605Z,100.00
2023-04-09T06:13:09.132Z,100.00
2023-04-09T06:15:38.730Z,100.00
2023-04-09T06:18:07.607Z,100.00
2023-04-09T06:20:35.140Z,100.00
2023-04-09T06:23:02.562Z,100.00
2023-04-09T06:25:29.995Z,100.00
2023-04-09T06:27:57.564Z,100.00
2023-04-09T06:30:25.761Z,100.00
2023-04-09T06:32:55.085Z,100.00
2023-04-09T06:35:24.387Z,100.00
2023-04-09T06:37:51.829Z,100.00
2023-04-09T06:40:22.192Z,100.00
2023-04-09T06:42:50.507Z,100.00
2023-04-09T06:45:18.049Z,100.00
2023-04-09T06:47:45.556Z,100.00
2023-04-09T06:50:13.025Z,100.00
2023-04-09T06:52:41.841Z,100.00
2023-04-09T06:55:10.594Z,100.00
2023-04-09T06:57:39.138Z,100.00
2023-04-09T07:00:08.013Z,100.00
2023-04-09T07:02:35.755Z,100.00
2023-04-09T07:05:03.960Z,100.00
2023-04-09T07:07:31.623Z,100.00
2023-04-09T07:10:00.394Z,98.61
2023-04-09T07:12:28.651Z,96.14
2023-04-09T07:14:58.801Z,92.31
2023-04-09T07:17:26.368Z,90.45
2023-04-09T07:19:54.277Z,89.21
2023-04-09T07:22:22.207Z,90.37
2023-04-09T07:24:53.589Z,83.27
2023-04-09T07:27:23.151Z,82.40
2023-04-09T07:29:50.930Z,82.09
2023-04-09T07:32:18.434Z,75.84
2023-04-09T07:34:45.858Z,75.71
2023-04-09T07:37:13.393Z,72.10
2023-04-09T07:39:42.452Z,74.53
2023-04-09T07:42:09.878Z,71.13
2023-04-09T07:44:39.463Z,70.78
2023-04-09T07:47:08.836Z,73.18
2023-04-09T07:49:37.053Z,69.25
2023-04-09T07:52:06.002Z,67.82
2023-04-09T07:54:35.468Z,67.74
2023-04-09T07:57:03.060Z,67.44
2023-04-09T07:59:31.361Z,65.70
2023-04-09T08:02:00.574Z,64.56
2023-04-09T08:04:28.811Z,67.24
2023-04-09T08:06:56.391Z,68.41
2023-04-09T08:09:24.101Z,67.30
2023-04-09T08:11:51.573Z,65.27
2023-04-09T08:14:19.293Z,67.00
2023-04-09T08:16:48.549Z,63.88
2023-04-09T08:19:18.946Z,63.35
2023-04-09T08:21:48.588Z,64.88
2023-04-09T08:24:16.479Z,64.82
2023-04-09T08:26:44.153Z,62.50
2023-04-09T08:29:13.881Z,64.46
2023-04-09T08:31:41.797Z,60.42
2023-04-09T08:34:09.307Z,61.77
2023-04-09T08:36:38.112Z,61.47
2023-04-09T08:39:05.556Z,60.58
2023-04-09T08:41:33.164Z,61.86
2023-04-09T08:44:00.707Z,62.53
2023-04-09T08:46:28.642Z,62.81
2023-04-09T08:48:57.019Z,62.54
2023-04-09T08:51:25.679Z,62.42
2023-04-09T08:53:57.327Z,62.47
2023-04-09T08:56:26.067Z,63.06
2023-04-09T08:58:54.767Z,63.14
2023-04-09T09:01:23.912Z,61.22
2023-04-09T09:03:55.447Z,64.40
2023-04-09T09:06:23.982Z,62.22
2023-04-09T09:09:07.041Z,60.60
2023-04-09T09:11:35.691Z,61.73
2023-04-09T09:14:04.167Z,63.02
2023-04-09T09:16:33.095Z,63.43
2023-04-09T09:19:00.859Z,62.60
2023-04-09T09:21:29.123Z,61.94
2023-04-09T09:23:56.896Z,58.72
2023-04-09T09:26:28.750Z,61.99
2023-04-09T09:28:58.708Z,60.60
2023-04-09T09:31:26.709Z,61.70
2023-04-09T09:33:54.184Z,59.88
2023-04-09T09:36:35.618Z,62.21
2023-04-09T09:39:09.597Z,61.75
2023-04-09T09:41:38.916Z,62.58
2023-04-09T09:44:07.929Z,57.76
2023-04-09T09:46:38.332Z,56.98
2023-04-09T09:49:06.799Z,57.52
2023-04-09T09:51:37.554Z,58.06
2023-04-09T09:54:07.885Z,60.35
2023-04-09T09:56:37.003Z,57.78
2023-04-09T09:59:20.762Z,58.38
2023-04-09T10:01:50.930Z,59.55
2023-04-09T10:04:22.225Z,58.63
2023-04-09T10:06:52.184Z,57.48
2023-04-09T10:09:24.178Z,56.71
2023-04-09T10:11:51.609Z,55.56
2023-04-09T10:14:20.653Z,56.42
2023-04-09T10:16:48.266Z,57.06
2023-04-09T10:19:16.951Z,58.79
2023-04-09T10:21:53.393Z,59.73
2023-04-09T10:24:21.150Z,57.20
2023-04-09T10:26:48.748Z,57.49
2023-04-09T10:29:18.182Z,57.64
2023-04-09T10:31:52.970Z,55.76
2023-04-09T10:34:23.226Z,53.87
2023-04-09T10:36:53.761Z,55.50
2023-04-09T10:39:21.366Z,55.72
2023-04-09T10:41:50.662Z,56.04
2023-04-09T10:44:22.404Z,56.33
2023-04-09T10:46:54.207Z,55.87
2023-04-09T10:49:22.838Z,56.30
2023-04-09T10:51:54.504Z,55.65
2023-04-09T10:54:51.883Z,55.93
2023-04-09T10:57:21.385Z,54.38
2023-04-09T10:59:50.645Z,53.74
2023-04-09T11:02:43.073Z,52.07
2023-04-09T11:05:32.893Z,53.08
2023-04-09T11:08:07.432Z,53.61
2023-04-09T11:10:34.896Z,55.04
2023-04-09T11:13:03.029Z,55.85
2023-04-09T11:15:30.642Z,54.97
2023-04-09T11:17:59.688Z,53.75
2023-04-09T11:20:27.608Z,54.96
2023-04-09T11:22:56.496Z,56.53
2023-04-09T11:25:28.547Z,54.01
2023-04-09T11:27:56.067Z,56.38
2023-04-09T11:30:23.734Z,56.67
2023-04-09T11:32:51.801Z,52.25
2023-04-09T11:35:23.586Z,53.14
2023-04-09T11:37:52.201Z,54.65
2023-04-09T11:40:21.044Z,52.22
2023-04-09T11:42:50.637Z,52.75
2023-04-09T11:45:19.258Z,54.12
2023-04-09T11:47:47.435Z,54.46
2023-04-09T11:50:16.064Z,52.51
2023-04-09T11:52:45.999Z,53.85
2023-04-09T11:55:23.393Z,51.83
2023-04-09T11:57:53.218Z,52.62
2023-04-09T12:00:20.994Z,52.30
2023-04-09T12:02:49.843Z,54.56
2023-04-09T12:05:24.510Z,54.33
2023-04-09T12:07:58.832Z,54.10
2023-04-09T12:10:28.678Z,54.13
2023-04-09T12:12:56.713Z,54.37
2023-04-09T12:15:25.469Z,55.88
2023-04-09T12:17:55.577Z,55.76
2023-04-09T12:20:31.122Z,53.55
2023-04-09T12:23:01.216Z,51.62
2023-04-09T12:25:28.785Z,51.82
2023-04-09T12:27:56.808Z,51.49
2023-04-09T12:30:24.324Z,51.88
2023-04-09T12:32:52.943Z,51.16
2023-04-09T12:35:20.676Z,52.59
2023-04-09T12:37:48.478Z,52.10
2023-04-09T12:40:17.964Z,50.88
2023-04-09T12:42:46.489Z,54.25
2023-04-09T12:45:16.140Z,53.68
2023-04-09T12:47:44.052Z,52.47
2023-04-09T12:50:13.267Z,52.99
2023-04-09T12:52:40.710Z,51.82
2023-04-09T12:55:09.371Z,53.22
2023-04-09T12:57:39.455Z,51.07
2023-04-09T13:00:08.913Z,48.15
2023-04-09T13:02:36.956Z,49.60
2023-04-09T13:05:05.144Z,52.36
2023-04-09T13:07:32.624Z,51.44
2023-04-09T13:10:00.216Z,49.49
2023-04-09T13:12:28.056Z,50.19
2023-04-09T13:14:56.856Z,50.42
2023-04-09T13:17:24.361Z,48.98
2023-04-09T13:19:51.970Z,50.07
2023-04-09T13:22:19.620Z,51.51
2023-04-09T13:24:47.189Z,49.74
2023-04-09T13:27:16.326Z,50.47
2023-04-09T13:29:43.774Z,48.52
2023-04-09T13:32:12.566Z,48.57
2023-04-09T13:34:40.437Z,49.52
2023-04-09T13:37:08.066Z,49.36
2023-04-09T13:39:35.597Z,48.84
2023-04-09T13:42:12.817Z,48.41
2023-04-09T13:44:42.275Z,47.34
2023-04-09T13:47:11.053Z,46.18
2023-04-09T13:49:40.552Z,46.47
2023-04-09T13:52:08.155Z,45.68
2023-04-09T13:54:36.024Z,44.79
2023-04-09T13:57:04.030Z,43.99
2023-04-09T13:59:31.488Z,46.70
2023-04-09T14:01:59.015Z,45.52
2023-04-09T14:04:26.621Z,44.94
2023-04-09T14:06:55.412Z,43.44
2023-04-09T14:09:22.863Z,42.76
2023-04-09T14:11:50.843Z,42.62
2023-04-09T14:14:19.749Z,40.56
2023-04-09T14:16:48.216Z,41.29
2023-04-09T14:19:15.639Z,42.17
2023-04-09T14:21:43.102Z,41.37
2023-04-09T14:24:11.995Z,39.17
2023-04-09T14:26:39.461Z,39.83
2023-04-09T14:29:06.912Z,37.99
2023-04-09T14:31:34.504Z,39.94
2023-04-09T14:34:01.939Z,38.80
2023-04-09T14:36:29.619Z,41.04
2023-04-09T14:38:58.080Z,39.69
2023-04-09T14:41:27.144Z,41.24
2023-04-09T14:43:54.541Z,40.31
2023-04-09T14:46:22.143Z,41.16
2023-04-09T14:48:49.688Z,39.84
2023-04-09T14:51:17.306Z,40.18
2023-04-09T14:53:44.712Z,40.45
2023-04-09T14:56:12.118Z,39.88
2023-04-09T14:58:40.883Z,40.46
2023-04-09T15:01:08.298Z,40.42
2023-04-09T15:03:36.262Z,40.08
2023-04-09T15:06:03.944Z,40.53
2023-04-09T15:08:31.408Z,39.86
2023-04-09T15:10:58.827Z,40.61
2023-04-09T15:13:26.272Z,41.74
2023-04-09T15:15:55.281Z,42.45
2023-04-09T15:18:22.849Z,41.36
2023-04-09T15:20:50.615Z,41.22
2023-04-09T15:23:18.039Z,40.79
2023-04-09T15:25:45.455Z,40.53
2023-04-09T15:28:14.325Z,39.87
2023-04-09T15:30:41.783Z,38.38
2023-04-09T15:33:10.605Z,39.13
2023-04-09T15:35:38.525Z,39.73
2023-04-09T15:38:05.967Z,40.61
2023-04-09T15:40:33.389Z,42.46
2023-04-09T15:43:00.896Z,43.29
2023-04-09T15:45:28.337Z,44.23
2023-04-09T15:47:56.022Z,42.40
2023-04-09T15:50:25.041Z,41.12
2023-04-09T15:52:52.594Z,43.40
2023-04-09T15:55:20.425Z,41.83
2023-04-09T15:57:47.951Z,41.40
2023-04-09T16:00:15.841Z,39.10
2023-04-09T16:02:43.257Z,40.10
2023-04-09T16:05:11.060Z,39.28
2023-04-09T16:07:40.108Z,39.44
2023-04-09T16:10:08.612Z,42.20
2023-04-09T16:12:36.249Z,41.63
2023-04-09T16:15:03.964Z,42.26
2023-04-09T16:17:31.487Z,42.32
2023-04-09T16:20:01.900Z,42.45
2023-04-09T16:22:29.537Z,41.87
2023-04-09T16:24:58.276Z,42.53
2023-04-09T16:27:26.111Z,42.98
2023-04-09T16:29:53.530Z,42.28
2023-04-09T16:32:21.316Z,42.59
2023-04-09T16:34:48.750Z,42.99
2023-04-09T16:37:16.160Z,43.89
2023-04-09T16:39:43.573Z,41.69
2023-04-09T16:42:12.532Z,42.55
2023-04-09T16:44:39.954Z,41.92
2023-04-09T16:47:08.163Z,42.74
2023-04-09T16:49:35.575Z,42.25
2023-04-09T16:52:03.002Z,43.03
2023-04-09T16:54:30.802Z,43.59
2023-04-09T16:56:58.541Z,43.29
2023-04-09T16:59:27.324Z,42.11
2023-04-09T17:01:54.931Z,43.13
2023-04-09T17:04:22.631Z,43.77
2023-04-09T17:06:50.738Z,42.58
2023-04-09T17:09:18.166Z,42.95
2023-04-09T17:11:45.593Z,43.75
2023-04-09T17:14:13.004Z,45.85
2023-04-09T17:16:41.805Z,45.97
2023-04-09T17:19:09.757Z,47.07
2023-04-09T17:21:37.902Z,47.42
2023-04-09T17:24:05.870Z,47.35
2023-04-09T17:26:34.001Z,47.48
2023-04-09T17:29:01.858Z,48.48
2023-04-09T17:31:29.502Z,48.75
2023-04-09T17:33:58.397Z,49.01
2023-04-09T17:36:26.184Z,49.88
2023-04-09T17:38:55.025Z,50.32
2023-04-09T17:41:23.953Z,50.68
2023-04-09T17:43:51.836Z,51.33
2023-04-09T17:46:19.677Z,51.77
2023-04-09T17:48:47.527Z,52.58
2023-04-09T17:51:19.933Z,53.44
2023-04-09T17:53:48.280Z,54.17
2023-04-09T17:56:17.330Z,54.19
2023-04-09T17:58:46.483Z,54.72
2023-04-09T18:01:14.344Z,54.94
2023-04-09T18:03:43.239Z,55.69
2023-04-09T18:06:11.340Z,55.59
2023-04-09T18:08:41.703Z,55.99
2023-04-09T18:11:13.359Z,56.77
2023-04-09T18:13:41.620Z,57.67
2023-04-09T18:16:10.415Z,58.57
2023-04-09T18:18:38.177Z,59.65
2023-04-09T18:21:06.891Z,60.46
2023-04-09T18:23:34.667Z,60.65
2023-04-09T18:26:03.786Z,61.12
2023-04-09T18:28:31.555Z,62.06
2023-04-09T18:30:59.327Z,62.68
2023-04-09T18:33:27.489Z,62.96
2023-04-09T18:36:00.561Z,63.02
2023-04-09T18:38:29.722Z,63.13
2023-04-09T18:40:57.690Z,62.87
2023-04-09T18:43:26.921Z,63.39
2023-04-09T18:45:54.782Z,63.82
2023-04-09T18:48:23.187Z,63.66
2023-04-09T18:50:50.997Z,63.70
2023-04-09T18:53:18.732Z,63.90
2023-04-09T18:55:46.909Z,64.42
2023-04-09T18:58:15.628Z,64.47
2023-04-09T19:00:44.921Z,64.88
2023-04-09T19:03:13.198Z,65.27
2023-04-09T19:05:40.990Z,65.22
2023-04-09T19:08:09.566Z,65.18
2023-04-09T19:10:37.371Z,65.29
2023-04-09T19:13:05.031Z,65.54
2023-04-09T19:15:32.716Z,64.85
2023-04-09T19:18:01.931Z,65.75
2023-04-09T19:20:29.715Z,65.69
2023-04-09T19:22:58.275Z,66.42
2023-04-09T19:25:25.996Z,67.21
2023-04-09T19:27:54.567Z,66.83
2023-04-09T19:30:22.281Z,66.95
2023-04-09T19:32:49.890Z,67.18
2023-04-09T19:35:19.253Z,67.58
2023-04-09T19:37:47.000Z,67.24
2023-04-09T19:40:17.708Z,67.02
2023-04-09T19:42:45.390Z,67.38
2023-04-09T19:45:13.586Z,67.20
2023-04-09T19:47:41.888Z,67.59
2023-04-09T19:50:10.929Z,68.42
2023-04-09T19:52:41.272Z,69.77
2023-04-09T19:55:10.667Z,69.69
2023-04-09T19:57:44.401Z,70.61
2023-04-09T20:00:20.390Z,71.83
2023-04-09T20:02:48.056Z,72.00
2023-04-09T20:05:15.771Z,72.38
2023-04-09T20:07:44.956Z,72.61
2023-04-09T20:10:13.199Z,73.09
2023-04-09T20:12:41.195Z,73.97
2023-04-09T20:15:10.310Z,74.55
2023-04-09T20:17:38.524Z,74.83
2023-04-09T20:20:06.956Z,75.33
2023-04-09T20:22:34.481Z,74.58
2023-04-09T20:25:03.371Z,75.69
2023-04-09T20:27:31.241Z,75.88
2023-04-09T20:29:58.802Z,75.99
2023-04-09T20:32:27.063Z,76.03
2023-04-09T20:34:54.624Z,75.96
2023-04-09T20:37:22.113Z,76.09
2023-04-09T20:39:49.605Z,75.94
2023-04-09T20:42:18.462Z,76.57
2023-04-09T20:44:45.975Z,76.84
2023-04-09T20:47:15.316Z,76.39
2023-04-09T20:49:43.341Z,76.41
2023-04-09T20:52:10.829Z,77.06
2023-04-09T20:54:39.150Z,77.27
2023-04-09T20:57:07.005Z,77.89
2023-04-09T20:59:35.870Z,78.06
2023-04-09T21:02:04.043Z,77.93
2023-04-09T21:04:31.841Z,78.22
2023-04-09T21:06:59.384Z,78.46
2023-04-09T21:09:26.941Z,79.21
2023-04-09T21:11:54.463Z,79.22
2023-04-09T21:14:21.965Z,78.94
2023-04-09T21:16:52.169Z,79.12
2023-04-09T21:19:19.809Z,79.40
2023-04-09T21:21:47.502Z,79.52
2023-04-09T21:24:15.603Z,79.84
2023-04-09T21:26:49.941Z,79.71
2023-04-09T21:29:18.928Z,79.73
2023-04-09T21:31:46.414Z,79.74
2023-04-09T21:34:15.473Z,80.17
2023-04-09T21:36:44.661Z,80.55
2023-04-09T21:39:12.186Z,80.38
2023-04-09T21:41:39.721Z,80.88
2023-04-09T21:44:08.879Z,81.41
2023-04-09T21:46:37.266Z,82.27
2023-04-09T21:49:05.400Z,83.26
2023-04-09T21:51:34.284Z,84.21
2023-04-09T21:54:05.996Z,84.85
2023-04-09T21:56:33.971Z,84.99
2023-04-09T21:59:01.930Z,84.77
2023-04-09T22:01:30.554Z,84.89
2023-04-09T22:03:58.169Z,84.93
2023-04-09T22:06:27.021Z,85.54
2023-04-09T22:08:57.336Z,85.25
2023-04-09T22:11:28.128Z,84.43
2023-04-09T22:13:56.702Z,84.12
2023-04-09T22:16:24.369Z,84.36
2023-04-09T22:18:52.404Z,83.65
2023-04-09T22:21:20.126Z,83.38
2023-04-09T22:23:47.663Z,83.60
2023-04-09T22:26:16.789Z,82.78
2023-04-09T22:28:44.253Z,82.50
2023-04-09T22:31:12.409Z,81.78
2023-04-09T22:33:39.968Z,81.94
2023-04-09T22:36:08.049Z,82.26
2023-04-09T22:38:35.963Z,82.48
2023-04-09T22:41:03.403Z,82.14
2023-04-09T22:43:32.402Z,81.98
2023-04-09T22:45:59.843Z,81.48
2023-04-09T22:48:28.783Z,80.80
2023-04-09T22:50:56.220Z,80.54
2023-04-09T22:53:23.651Z,80.07
2023-04-09T22:55:51.900Z,80.97
2023-04-09T22:58:19.709Z,81.15
2023-04-09T23:00:49.544Z,81.37
2023-04-09T23:03:17.778Z,81.55
2023-04-09T23:05:46.220Z,82.47
2023-04-09T23:08:13.622Z,83.32
2023-04-09T23:10:41.063Z,84.01
2023-04-09T23:13:10.070Z,85.49
2023-04-09T23:15:37.475Z,87.39
2023-04-09T23:18:06.309Z,88.91
2023-04-09T23:20:33.811Z,88.07
2023-04-09T23:23:01.218Z,87.67
2023-04-09T23:25:28.687Z,87.42
2023-04-09T23:27:56.274Z,88.58
2023-04-09T23:30:24.337Z,89.73
2023-04-09T23:32:52.461Z,90.56
2023-04-09T23:35:22.345Z,90.94
2023-04-09T23:37:49.952Z,91.26
2023-04-09T23:40:18.698Z,92.35
2023-04-09T23:42:47.795Z,92.54
2023-04-09T23:45:15.289Z,92.36
2023-04-09T23:47:42.813Z,91.82
2023-04-09T23:50:10.959Z,91.68
2023-04-09T23:52:39.762Z,91.71
2023-04-09T23:55:08.607Z,91.11
2023-04-09T23:57:36.235Z,92.00
